sensor_id;sensor_type;location;lat;lon;timestamp;pressure;altitude;pressure_sealevel;temperature;humidity
49949;BME280;35840;45.982;8.890;2024-02-26T00:02:07;97483.97;;;5.84;100.00
49949;BME280;35840;45.982;8.890;2024-02-26T00:04:34;97489.41;;;5.78;100.00
49949;BME280;35840;45.982;8.890;2024-02-26T00:07:01;97486.84;;;5.78;100.00
49949;BME280;35840;45.982;8.890;2024-02-26T00:09:28;97478.63;;;5.73;100.00
49949;BME280;35840;45.982;8.890;2024-02-26T00:11:55;97485.06;;;5.80;100.00
49949;BME280;35840;45.982;8.890;2024-02-26T00:14:22;97483.97;;;5.84;100.00
49949;BME280;35840;45.982;8.890;2024-02-26T00:16:49;97476.38;;;5.82;100.00
49949;BME280;35840;45.982;8.890;2024-02-26T00:19:16;97489.06;;;5.84;100.00
49949;BME280;35840;45.982;8.890;2024-02-26T00:21:43;97477.97;;;5.85;100.00
49949;BME280;35840;45.982;8.890;2024-02-26T00:24:10;97485.13;;;5.94;100.00
49949;BME280;35840;45.982;8.890;2024-02-26T00:26:37;97487.56;;;5.96;100.00
49949;BME280;35840;45.982;8.890;2024-02-26T00:29:04;97475.56;;;5.98;100.00
49949;BME280;35840;45.982;8.890;2024-02-26T00:31:31;97481.16;;;6.05;100.00
49949;BME280;35840;45.982;8.890;2024-02-26T00:33:58;97454.09;;;5.86;100.00
49949;BME280;35840;45.982;8.890;2024-02-26T00:36:25;97469.47;;;6.00;100.00
49949;BME280;35840;45.982;8.890;2024-02-26T00:38:52;97469.88;;;6.09;100.00
49949;BME280;35840;45.982;8.890;2024-02-26T00:41:20;97467.03;;;5.99;100.00
49949;BME280;35840;45.982;8.890;2024-02-26T00:43:47;97469.97;;;5.91;100.00
49949;BME280;35840;45.982;8.890;2024-02-26T00:46:13;97474.16;;;5.92;100.00
49949;BME280;35840;45.982;8.890;2024-02-26T00:48:40;97467.16;;;5.96;100.00
49949;BME280;35840;45.982;8.890;2024-02-26T00:51:07;97471.13;;;6.01;100.00
49949;BME280;35840;45.982;8.890;2024-02-26T00:53:35;97458.28;;;6.03;100.00
49949;BME280;35840;45.982;8.890;2024-02-26T00:56:02;97458.03;;;6.08;100.00
49949;BME280;35840;45.982;8.890;2024-02-26T00:58:29;97467.69;;;6.02;100.00
49949;BME280;35840;45.982;8.890;2024-02-26T01:00:56;97462.00;;;5.97;100.00
49949;BME280;35840;45.982;8.890;2024-02-26T01:03:23;97459.50;;;5.96;100.00
49949;BME280;35840;45.982;8.890;2024-02-26T01:05:50;97460.03;;;6.02;100.00
49949;BME280;35840;45.982;8.890;2024-02-26T01:08:19;97440.06;;;5.79;100.00
49949;BME280;35840;45.982;8.890;2024-02-26T01:10:46;97443.72;;;5.89;100.00
49949;BME280;35840;45.982;8.890;2024-02-26T01:13:13;97446.72;;;5.81;100.00
49949;BME280;35840;45.982;8.890;2024-02-26T01:15:40;97444.81;;;5.85;100.00
49949;BME280;35840;45.982;8.890;2024-02-26T01:18:07;97437.63;;;5.92;100.00
49949;BME280;35840;45.982;8.890;2024-02-26T01:20:34;97436.16;;;5.88;100.00
49949;BME280;35840;45.982;8.890;2024-02-26T01:23:01;97434.56;;;5.71;100.00
49949;BME280;35840;45.982;8.890;2024-02-26T01:25:28;97435.94;;;5.76;100.00
49949;BME280;35840;45.982;8.890;2024-02-26T01:27:54;97426.00;;;5.72;100.00
49949;BME280;35840;45.982;8.890;2024-02-26T01:30:22;97432.34;;;5.48;100.00
49949;BME280;35840;45.982;8.890;2024-02-26T01:32:49;97434.16;;;5.62;100.00
49949;BME280;35840;45.982;8.890;2024-02-26T01:35:16;97424.97;;;5.44;100.00
49949;BME280;35840;45.982;8.890;2024-02-26T01:37:42;97428.31;;;5.44;100.00
49949;BME280;35840;45.982;8.890;2024-02-26T01:40:10;97415.28;;;5.34;100.00
49949;BME280;35840;45.982;8.890;2024-02-26T01:42:40;97419.88;;;5.28;100.00
49949;BME280;35840;45.982;8.890;2024-02-26T01:45:13;97408.88;;;5.27;100.00
49949;BME280;35840;45.982;8.890;2024-02-26T01:47:42;97418.13;;;5.44;100.00
49949;BME280;35840;45.982;8.890;2024-02-26T01:50:12;97383.97;;;5.16;100.00
49949;BME280;35840;45.982;8.890;2024-02-26T01:52:39;97402.53;;;5.18;100.00
49949;BME280;35840;45.982;8.890;2024-02-26T01:55:07;97402.38;;;5.06;100.00
49949;BME280;35840;45.982;8.890;2024-02-26T01:57:34;97402.28;;;5.07;100.00
49949;BME280;35840;45.982;8.890;2024-02-26T02:00:01;97398.03;;;5.08;100.00
49949;BME280;35840;45.982;8.890;2024-02-26T02:02:34;97402.97;;;5.11;100.00
49949;BME280;35840;45.982;8.890;2024-02-26T02:05:01;97408.94;;;5.26;100.00
49949;BME280;35840;45.982;8.890;2024-02-26T02:07:28;97404.34;;;5.32;100.00
49949;BME280;35840;45.982;8.890;2024-02-26T02:09:55;97395.72;;;5.35;100.00
49949;BME280;35840;45.982;8.890;2024-02-26T02:12:22;97402.69;;;5.31;100.00
49949;BME280;35840;45.982;8.890;2024-02-26T02:14:49;97396.19;;;5.26;100.00
49949;BME280;35840;45.982;8.890;2024-02-26T02:17:16;97393.44;;;5.30;100.00
49949;BME280;35840;45.982;8.890;2024-02-26T02:19:43;97394.56;;;5.41;100.00
49949;BME280;35840;45.982;8.890;2024-02-26T02:22:09;97391.84;;;5.28;100.00
49949;BME280;35840;45.982;8.890;2024-02-26T02:24:36;97384.63;;;5.20;100.00
49949;BME280;35840;45.982;8.890;2024-02-26T02:27:04;97393.59;;;5.27;100.00
49949;BME280;35840;45.982;8.890;2024-02-26T02:29:30;97393.00;;;5.22;100.00
49949;BME280;35840;45.982;8.890;2024-02-26T02:31:58;97379.13;;;5.28;100.00
49949;BME280;35840;45.982;8.890;2024-02-26T02:34:25;97390.28;;;5.25;100.00
49949;BME280;35840;45.982;8.890;2024-02-26T02:36:53;97376.03;;;5.37;100.00
49949;BME280;35840;45.982;8.890;2024-02-26T02:39:21;97382.72;;;5.40;100.00
49949;BME280;35840;45.982;8.890;2024-02-26T02:41:48;97382.22;;;5.33;100.00
49949;BME280;35840;45.982;8.890;2024-02-26T02:44:15;97378.31;;;5.27;100.00
49949;BME280;35840;45.982;8.890;2024-02-26T02:46:41;97381.09;;;5.23;100.00
49949;BME280;35840;45.982;8.890;2024-02-26T02:49:09;97366.19;;;5.31;100.00
49949;BME280;35840;45.982;8.890;2024-02-26T02:51:37;97366.72;;;5.22;100.00
49949;BME280;35840;45.982;8.890;2024-02-26T02:54:04;97367.09;;;5.30;100.00
49949;BME280;35840;45.982;8.890;2024-02-26T02:56:31;97376.44;;;5.45;100.00
49949;BME280;35840;45.982;8.890;2024-02-26T02:58:58;97372.00;;;5.49;100.00
49949;BME280;35840;45.982;8.890;2024-02-26T03:01:25;97371.09;;;5.50;100.00
49949;BME280;35840;45.982;8.890;2024-02-26T03:03:51;97371.34;;;5.45;100.00
49949;BME280;35840;45.982;8.890;2024-02-26T03:06:18;97380.47;;;5.49;100.00
49949;BME280;35840;45.982;8.890;2024-02-26T03:08:47;97377.50;;;5.57;100.00
49949;BME280;35840;45.982;8.890;2024-02-26T03:11:15;97370.84;;;5.55;100.00
49949;BME280;35840;45.982;8.890;2024-02-26T03:13:42;97370.00;;;5.54;100.00
49949;BME280;35840;45.982;8.890;2024-02-26T03:16:09;97363.44;;;5.50;100.00
49949;BME280;35840;45.982;8.890;2024-02-26T03:18:38;97366.75;;;5.52;100.00
49949;BME280;35840;45.982;8.890;2024-02-26T03:21:06;97372.75;;;5.51;100.00
49949;BME280;35840;45.982;8.890;2024-02-26T03:23:33;97369.91;;;5.56;100.00
49949;BME280;35840;45.982;8.890;2024-02-26T03:26:03;97363.94;;;5.57;100.00
49949;BME280;35840;45.982;8.890;2024-02-26T03:28:30;97363.78;;;5.44;100.00
49949;BME280;35840;45.982;8.890;2024-02-26T03:31:01;97349.97;;;5.48;100.00
49949;BME280;35840;45.982;8.890;2024-02-26T03:33:29;97357.25;;;5.54;100.00
49949;BME280;35840;45.982;8.890;2024-02-26T03:35:56;97346.75;;;5.60;100.00
49949;BME280;35840;45.982;8.890;2024-02-26T03:38:23;97347.47;;;5.62;100.00
49949;BME280;35840;45.982;8.890;2024-02-26T03:40:50;97346.16;;;5.55;100.00
49949;BME280;35840;45.982;8.890;2024-02-26T03:43:17;97353.47;;;5.61;100.00
49949;BME280;35840;45.982;8.890;2024-02-26T03:45:44;97349.47;;;5.57;100.00
49949;BME280;35840;45.982;8.890;2024-02-26T03:48:11;97348.44;;;5.60;100.00
49949;BME280;35840;45.982;8.890;2024-02-26T03:50:38;97345.66;;;5.64;100.00
49949;BME280;35840;45.982;8.890;2024-02-26T03:53:05;97344.59;;;5.68;100.00
49949;BME280;35840;45.982;8.890;2024-02-26T03:55:32;97330.69;;;5.58;100.00
49949;BME280;35840;45.982;8.890;2024-02-26T03:57:59;97341.94;;;5.70;100.00
49949;BME280;35840;45.982;8.890;2024-02-26T04:00:26;97350.00;;;5.62;100.00
49949;BME280;35840;45.982;8.890;2024-02-26T04:02:56;97339.50;;;5.52;100.00
49949;BME280;35840;45.982;8.890;2024-02-26T04:05:22;97342.16;;;5.51;100.00
49949;BME280;35840;45.982;8.890;2024-02-26T04:07:49;97338.13;;;5.47;100.00
49949;BME280;35840;45.982;8.890;2024-02-26T04:10:16;97334.00;;;5.44;100.00
49949;BME280;35840;45.982;8.890;2024-02-26T04:12:43;97332.22;;;5.46;100.00
49949;BME280;35840;45.982;8.890;2024-02-26T04:15:10;97337.31;;;5.46;100.00
49949;BME280;35840;45.982;8.890;2024-02-26T04:17:38;97331.56;;;5.43;100.00
49949;BME280;35840;45.982;8.890;2024-02-26T04:20:06;97338.22;;;5.45;100.00
49949;BME280;35840;45.982;8.890;2024-02-26T04:22:33;97339.13;;;5.44;100.00
49949;BME280;35840;45.982;8.890;2024-02-26T04:25:00;97334.09;;;5.43;100.00
49949;BME280;35840;45.982;8.890;2024-02-26T04:27:27;97331.00;;;5.38;100.00
49949;BME280;35840;45.982;8.890;2024-02-26T04:29:54;97335.94;;;5.41;100.00
49949;BME280;35840;45.982;8.890;2024-02-26T04:32:21;97332.56;;;5.40;100.00
49949;BME280;35840;45.982;8.890;2024-02-26T04:34:47;97336.38;;;5.17;100.00
49949;BME280;35840;45.982;8.890;2024-02-26T04:37:14;97334.81;;;5.30;100.00
49949;BME280;35840;45.982;8.890;2024-02-26T04:39:42;97334.63;;;5.33;100.00
49949;BME280;35840;45.982;8.890;2024-02-26T04:42:09;97326.09;;;5.18;100.00
49949;BME280;35840;45.982;8.890;2024-02-26T04:44:36;97335.00;;;5.11;100.00
49949;BME280;35840;45.982;8.890;2024-02-26T04:47:03;97324.47;;;5.17;100.00
49949;BME280;35840;45.982;8.890;2024-02-26T04:49:29;97334.06;;;5.28;100.00
49949;BME280;35840;45.982;8.890;2024-02-26T04:51:56;97324.94;;;5.24;100.00
49949;BME280;35840;45.982;8.890;2024-02-26T04:54:24;97331.84;;;5.22;100.00
49949;BME280;35840;45.982;8.890;2024-02-26T04:56:51;97327.94;;;5.16;100.00
49949;BME280;35840;45.982;8.890;2024-02-26T04:59:18;97336.38;;;5.17;100.00
49949;BME280;35840;45.982;8.890;2024-02-26T05:01:45;97328.31;;;5.09;100.00
49949;BME280;35840;45.982;8.890;2024-02-26T05:04:12;97335.34;;;5.05;100.00
49949;BME280;35840;45.982;8.890;2024-02-26T05:06:39;97333.94;;;4.99;100.00
49949;BME280;35840;45.982;8.890;2024-02-26T05:09:06;97333.28;;;5.12;100.00
49949;BME280;35840;45.982;8.890;2024-02-26T05:11:33;97346.16;;;5.09;100.00
49949;BME280;35840;45.982;8.890;2024-02-26T05:14:00;97342.22;;;5.03;100.00
49949;BME280;35840;45.982;8.890;2024-02-26T05:16:27;97333.84;;;5.01;100.00
49949;BME280;35840;45.982;8.890;2024-02-26T05:18:57;97348.56;;;4.96;100.00
49949;BME280;35840;45.982;8.890;2024-02-26T05:21:24;97344.53;;;4.92;100.00
49949;BME280;35840;45.982;8.890;2024-02-26T05:23:51;97346.00;;;4.96;100.00
49949;BME280;35840;45.982;8.890;2024-02-26T05:26:24;97349.22;;;4.99;100.00
49949;BME280;35840;45.982;8.890;2024-02-26T05:28:51;97350.56;;;4.91;100.00
49949;BME280;35840;45.982;8.890;2024-02-26T05:31:18;97346.84;;;4.80;100.00
49949;BME280;35840;45.982;8.890;2024-02-26T05:33:45;97346.53;;;4.87;100.00
49949;BME280;35840;45.982;8.890;2024-02-26T05:36:18;97357.94;;;4.95;100.00
49949;BME280;35840;45.982;8.890;2024-02-26T05:38:46;97354.81;;;4.90;100.00
49949;BME280;35840;45.982;8.890;2024-02-26T05:41:15;97345.91;;;4.97;100.00
49949;BME280;35840;45.982;8.890;2024-02-26T05:43:42;97345.38;;;4.92;100.00
49949;BME280;35840;45.982;8.890;2024-02-26T05:46:09;97355.22;;;4.98;100.00
49949;BME280;35840;45.982;8.890;2024-02-26T05:48:36;97353.00;;;4.92;100.00
49949;BME280;35840;45.982;8.890;2024-02-26T05:51:04;97346.34;;;4.90;100.00
49949;BME280;35840;45.982;8.890;2024-02-26T05:53:31;97343.38;;;4.97;100.00
49949;BME280;35840;45.982;8.890;2024-02-26T05:55:57;97350.88;;;5.00;100.00
49949;BME280;35840;45.982;8.890;2024-02-26T05:58:24;97332.72;;;4.91;100.00
49949;BME280;35840;45.982;8.890;2024-02-26T06:00:51;97346.50;;;5.03;100.00
49949;BME280;35840;45.982;8.890;2024-02-26T06:03:18;97346.50;;;5.03;100.00
49949;BME280;35840;45.982;8.890;2024-02-26T06:05:45;97330.34;;;4.88;100.00
49949;BME280;35840;45.982;8.890;2024-02-26T06:08:13;97341.66;;;4.98;100.00
49949;BME280;35840;45.982;8.890;2024-02-26T06:10:40;97349.31;;;4.98;100.00
49949;BME280;35840;45.982;8.890;2024-02-26T06:13:07;97345.63;;;5.04;100.00
49949;BME280;35840;45.982;8.890;2024-02-26T06:15:34;97345.78;;;5.00;100.00
49949;BME280;35840;45.982;8.890;2024-02-26T06:18:01;97345.47;;;4.91;100.00
49949;BME280;35840;45.982;8.890;2024-02-26T06:20:27;97358.03;;;4.78;100.00
49949;BME280;35840;45.982;8.890;2024-02-26T06:22:54;97358.59;;;4.83;100.00
49949;BME280;35840;45.982;8.890;2024-02-26T06:25:22;97353.31;;;4.86;100.00
49949;BME280;35840;45.982;8.890;2024-02-26T06:27:49;97352.25;;;4.90;100.00
49949;BME280;35840;45.982;8.890;2024-02-26T06:30:16;97359.16;;;4.88;100.00
49949;BME280;35840;45.982;8.890;2024-02-26T06:32:43;97357.59;;;4.86;100.00
49949;BME280;35840;45.982;8.890;2024-02-26T06:35:10;97336.34;;;4.71;100.00
49949;BME280;35840;45.982;8.890;2024-02-26T06:37:38;97361.16;;;4.99;100.00
49949;BME280;35840;45.982;8.890;2024-02-26T06:40:06;97354.00;;;4.90;100.00
49949;BME280;35840;45.982;8.890;2024-02-26T06:42:33;97342.50;;;4.82;100.00
49949;BME280;35840;45.982;8.890;2024-02-26T06:45:00;97369.34;;;5.04;100.00
49949;BME280;35840;45.982;8.890;2024-02-26T06:47:26;97381.34;;;4.86;100.00
49949;BME280;35840;45.982;8.890;2024-02-26T06:49:53;97380.78;;;4.97;100.00
49949;BME280;35840;45.982;8.890;2024-02-26T06:52:24;97379.63;;;4.87;100.00
49949;BME280;35840;45.982;8.890;2024-02-26T06:54:52;97368.59;;;4.86;100.00
49949;BME280;35840;45.982;8.890;2024-02-26T06:57:20;97372.78;;;4.87;100.00
49949;BME280;35840;45.982;8.890;2024-02-26T06:59:47;97374.13;;;4.94;100.00
49949;BME280;35840;45.982;8.890;2024-02-26T07:02:14;97370.75;;;4.94;100.00
49949;BME280;35840;45.982;8.890;2024-02-26T07:04:42;97377.97;;;4.86;100.00
49949;BME280;35840;45.982;8.890;2024-02-26T07:07:09;97384.63;;;4.88;100.00
49949;BME280;35840;45.982;8.890;2024-02-26T07:09:37;97390.38;;;4.92;100.00
49949;BME280;35840;45.982;8.890;2024-02-26T07:12:04;97386.28;;;4.89;100.00
49949;BME280;35840;45.982;8.890;2024-02-26T07:14:31;97387.53;;;4.82;100.00
49949;BME280;35840;45.982;8.890;2024-02-26T07:16:59;97392.28;;;4.88;100.00
49949;BME280;35840;45.982;8.890;2024-02-26T07:19:26;97383.41;;;4.79;100.00
49949;BME280;35840;45.982;8.890;2024-02-26T07:21:52;97393.09;;;4.89;100.00
49949;BME280;35840;45.982;8.890;2024-02-26T07:24:20;97396.47;;;4.89;100.00
49949;BME280;35840;45.982;8.890;2024-02-26T07:26:47;97391.50;;;4.86;100.00
49949;BME280;35840;45.982;8.890;2024-02-26T07:29:14;97389.06;;;4.69;100.00
49949;BME280;35840;45.982;8.890;2024-02-26T07:31:41;97390.69;;;4.70;100.00
49949;BME280;35840;45.982;8.890;2024-02-26T07:34:08;97399.41;;;4.81;100.00
49949;BME280;35840;45.982;8.890;2024-02-26T07:36:35;97399.41;;;4.81;100.00
49949;BME280;35840;45.982;8.890;2024-02-26T07:39:02;97404.19;;;4.88;100.00
49949;BME280;35840;45.982;8.890;2024-02-26T07:41:29;97398.50;;;4.82;100.00
49949;BME280;35840;45.982;8.890;2024-02-26T07:43:56;97404.75;;;4.77;100.00
49949;BME280;35840;45.982;8.890;2024-02-26T07:46:23;97386.75;;;4.64;100.00
49949;BME280;35840;45.982;8.890;2024-02-26T07:48:50;97391.69;;;4.67;100.00
49949;BME280;35840;45.982;8.890;2024-02-26T07:51:17;97390.69;;;4.70;100.00
49949;BME280;35840;45.982;8.890;2024-02-26T07:53:44;97401.44;;;4.75;100.00
49949;BME280;35840;45.982;8.890;2024-02-26T07:56:11;97411.16;;;4.84;100.00
49949;BME280;35840;45.982;8.890;2024-02-26T07:58:37;97401.25;;;4.62;100.00
49949;BME280;35840;45.982;8.890;2024-02-26T08:01:04;97413.19;;;4.61;100.00
49949;BME280;35840;45.982;8.890;2024-02-26T08:03:31;97404.88;;;4.58;100.00
49949;BME280;35840;45.982;8.890;2024-02-26T08:05:58;97411.69;;;4.57;100.00
49949;BME280;35840;45.982;8.890;2024-02-26T08:08:25;97408.50;;;4.54;100.00
49949;BME280;35840;45.982;8.890;2024-02-26T08:10:52;97405.53;;;4.61;100.00
49949;BME280;35840;45.982;8.890;2024-02-26T08:13:18;97391.69;;;4.67;100.00
49949;BME280;35840;45.982;8.890;2024-02-26T08:15:45;97380.34;;;4.57;100.00
49949;BME280;35840;45.982;8.890;2024-02-26T08:18:12;97380.00;;;4.63;100.00
49949;BME280;35840;45.982;8.890;2024-02-26T08:20:39;97379.63;;;4.71;100.00
49949;BME280;35840;45.982;8.890;2024-02-26T08:23:06;97378.22;;;4.81;100.00
49949;BME280;35840;45.982;8.890;2024-02-26T08:25:33;97378.16;;;4.82;100.00
49949;BME280;35840;45.982;8.890;2024-02-26T08:28:00;97363.75;;;4.81;100.00
49949;BME280;35840;45.982;8.890;2024-02-26T08:30:27;97372.53;;;4.92;100.00
49949;BME280;35840;45.982;8.890;2024-02-26T08:32:54;97370.50;;;4.98;100.00
49949;BME280;35840;45.982;8.890;2024-02-26T08:35:21;97379.78;;;4.99;100.00
49949;BME280;35840;45.982;8.890;2024-02-26T08:37:48;97386.75;;;4.96;100.00
49949;BME280;35840;45.982;8.890;2024-02-26T08:40:15;97403.69;;;4.97;100.00
49949;BME280;35840;45.982;8.890;2024-02-26T08:42:42;97392.03;;;4.77;100.00
49949;BME280;35840;45.982;8.890;2024-02-26T08:45:09;97406.97;;;4.83;100.00
49949;BME280;35840;45.982;8.890;2024-02-26T08:47:36;97414.34;;;4.72;100.00
49949;BME280;35840;45.982;8.890;2024-02-26T08:50:04;97406.88;;;4.69;100.00
49949;BME280;35840;45.982;8.890;2024-02-26T08:52:31;97408.16;;;4.60;100.00
49949;BME280;35840;45.982;8.890;2024-02-26T08:54:58;97402.53;;;4.71;100.00
49949;BME280;35840;45.982;8.890;2024-02-26T08:57:25;97395.72;;;4.71;100.00
49949;BME280;35840;45.982;8.890;2024-02-26T08:59:55;97392.72;;;4.63;100.00
49949;BME280;35840;45.982;8.890;2024-02-26T09:02:22;97390.34;;;4.60;100.00
49949;BME280;35840;45.982;8.890;2024-02-26T09:04:48;97411.06;;;4.70;100.00
49949;BME280;35840;45.982;8.890;2024-02-26T09:07:17;97414.66;;;4.65;100.00
49949;BME280;35840;45.982;8.890;2024-02-26T09:09:44;97420.34;;;4.71;100.00
49949;BME280;35840;45.982;8.890;2024-02-26T09:12:11;97414.50;;;4.69;100.00
49949;BME280;35840;45.982;8.890;2024-02-26T09:14:38;97415.91;;;4.58;100.00
49949;BME280;35840;45.982;8.890;2024-02-26T09:17:05;97417.09;;;4.51;100.00
49949;BME280;35840;45.982;8.890;2024-02-26T09:19:34;97428.03;;;4.53;100.00
49949;BME280;35840;45.982;8.890;2024-02-26T09:22:01;97426.22;;;4.55;100.00
49949;BME280;35840;45.982;8.890;2024-02-26T09:24:28;97424.06;;;4.47;100.00
49949;BME280;35840;45.982;8.890;2024-02-26T09:26:55;97424.31;;;4.43;100.00
49949;BME280;35840;45.982;8.890;2024-02-26T09:29:23;97419.97;;;4.27;100.00
49949;BME280;35840;45.982;8.890;2024-02-26T09:31:50;97423.34;;;4.28;100.00
49949;BME280;35840;45.982;8.890;2024-02-26T09:34:16;97436.88;;;4.46;100.00
49949;BME280;35840;45.982;8.890;2024-02-26T09:36:44;97432.09;;;4.40;100.00
49949;BME280;35840;45.982;8.890;2024-02-26T09:39:10;97439.09;;;4.52;100.00
49949;BME280;35840;45.982;8.890;2024-02-26T09:41:38;97438.09;;;4.39;100.00
49949;BME280;35840;45.982;8.890;2024-02-26T09:44:06;97428.31;;;4.31;100.00
49949;BME280;35840;45.982;8.890;2024-02-26T09:46:33;97431.22;;;4.06;100.00
49949;BME280;35840;45.982;8.890;2024-02-26T09:49:00;97434.13;;;3.98;100.00
49949;BME280;35840;45.982;8.890;2024-02-26T09:51:27;97430.53;;;4.02;100.00
49949;BME280;35840;45.982;8.890;2024-02-26T09:53:59;97426.34;;;4.01;100.00
49949;BME280;35840;45.982;8.890;2024-02-26T09:56:29;97422.31;;;4.14;100.00
49949;BME280;35840;45.982;8.890;2024-02-26T09:58:57;97418.13;;;4.31;100.00
49949;BME280;35840;45.982;8.890;2024-02-26T10:01:24;97400.75;;;4.22;100.00
49949;BME280;35840;45.982;8.890;2024-02-26T10:03:55;97419.09;;;4.28;100.00
49949;BME280;35840;45.982;8.890;2024-02-26T10:06:26;97417.72;;;4.39;100.00
49949;BME280;35840;45.982;8.890;2024-02-26T10:08:54;97420.53;;;4.50;100.00
49949;BME280;35840;45.982;8.890;2024-02-26T10:11:22;97413.34;;;4.58;100.00
49949;BME280;35840;45.982;8.890;2024-02-26T10:13:50;97403.06;;;4.44;100.00
49949;BME280;35840;45.982;8.890;2024-02-26T10:16:17;97418.28;;;4.61;100.00
49949;BME280;35840;45.982;8.890;2024-02-26T10:18:51;97408.81;;;4.63;100.00
49949;BME280;35840;45.982;8.890;2024-02-26T10:21:26;97418.28;;;4.61;100.00
49949;BME280;35840;45.982;8.890;2024-02-26T10:23:53;97422.47;;;4.62;100.00
49949;BME280;35840;45.982;8.890;2024-02-26T10:26:21;97414.66;;;4.65;100.00
49949;BME280;35840;45.982;8.890;2024-02-26T10:28:48;97413.78;;;4.67;100.00
49949;BME280;35840;45.982;8.890;2024-02-26T10:31:21;97411.22;;;4.67;100.00
49949;BME280;35840;45.982;8.890;2024-02-26T10:33:48;97402.31;;;4.58;100.00
49949;BME280;35840;45.982;8.890;2024-02-26T10:36:16;97419.00;;;4.63;100.00
49949;BME280;35840;45.982;8.890;2024-02-26T10:38:43;97412.28;;;4.62;100.00
49949;BME280;35840;45.982;8.890;2024-02-26T10:41:13;97417.13;;;4.67;100.00
49949;BME280;35840;45.982;8.890;2024-02-26T10:43:42;97429.13;;;4.65;100.00
49949;BME280;35840;45.982;8.890;2024-02-26T10:46:10;97416.78;;;4.57;100.00
49949;BME280;35840;45.982;8.890;2024-02-26T10:48:38;97412.38;;;4.61;100.00
49949;BME280;35840;45.982;8.890;2024-02-26T10:51:06;97411.44;;;4.62;100.00
49949;BME280;35840;45.982;8.890;2024-02-26T10:53:36;97423.38;;;4.61;100.00
49949;BME280;35840;45.982;8.890;2024-02-26T10:56:04;97423.59;;;4.57;100.00
49949;BME280;35840;45.982;8.890;2024-02-26T10:58:34;97415.13;;;4.56;100.00
49949;BME280;35840;45.982;8.890;2024-02-26T11:01:03;97414.91;;;4.61;100.00
49949;BME280;35840;45.982;8.890;2024-02-26T11:03:31;97421.28;;;4.52;100.00
49949;BME280;35840;45.982;8.890;2024-02-26T11:06:01;97412.75;;;4.53;100.00
49949;BME280;35840;45.982;8.890;2024-02-26T11:08:30;97408.16;;;4.44;100.00
49949;BME280;35840;45.982;8.890;2024-02-26T11:10:59;97416.84;;;4.40;100.00
49949;BME280;35840;45.982;8.890;2024-02-26T11:13:28;97411.91;;;4.37;100.00
49949;BME280;35840;45.982;8.890;2024-02-26T11:15:58;97403.78;;;4.46;100.00
49949;BME280;35840;45.982;8.890;2024-02-26T11:18:27;97392.59;;;4.15;100.00
49949;BME280;35840;45.982;8.890;2024-02-26T11:20:54;97389.91;;;4.18;100.00
49949;BME280;35840;45.982;8.890;2024-02-26T11:23:24;97399.88;;;4.23;100.00
49949;BME280;35840;45.982;8.890;2024-02-26T11:25:52;97394.72;;;4.24;100.00
49949;BME280;35840;45.982;8.890;2024-02-26T11:28:21;97377.94;;;4.20;100.00
49949;BME280;35840;45.982;8.890;2024-02-26T11:30:49;97376.06;;;4.24;100.00
49949;BME280;35840;45.982;8.890;2024-02-26T11:33:19;97382.06;;;4.23;100.00
49949;BME280;35840;45.982;8.890;2024-02-26T11:35:47;97384.16;;;4.14;100.00
49949;BME280;35840;45.982;8.890;2024-02-26T11:38:21;97391.63;;;4.18;100.00
49949;BME280;35840;45.982;8.890;2024-02-26T11:40:48;97376.16;;;4.05;100.00
49949;BME280;35840;45.982;8.890;2024-02-26T11:43:16;97385.06;;;4.13;100.00
49949;BME280;35840;45.982;8.890;2024-02-26T11:48:15;97381.09;;;4.25;100.00
49949;BME280;35840;45.982;8.890;2024-02-26T11:50:48;97378.38;;;4.28;100.00
49949;BME280;35840;45.982;8.890;2024-02-26T11:53:28;97376.34;;;4.35;100.00
49949;BME280;35840;45.982;8.890;2024-02-26T11:56:22;97366.22;;;4.34;100.00
49949;BME280;35840;45.982;8.890;2024-02-26T11:59:02;97369.69;;;4.33;100.00
49949;BME280;35840;45.982;8.890;2024-02-26T12:04:34;97365.75;;;4.27;100.00
49949;BME280;35840;45.982;8.890;2024-02-26T12:07:03;97359.34;;;4.36;100.00
49949;BME280;35840;45.982;8.890;2024-02-26T12:09:41;97349.22;;;4.18;100.00
49949;BME280;35840;45.982;8.890;2024-02-26T12:12:10;97336.81;;;4.12;100.00
49949;BME280;35840;45.982;8.890;2024-02-26T12:14:50;97348.50;;;4.32;100.00
49949;BME280;35840;45.982;8.890;2024-02-26T12:17:23;97345.47;;;4.25;99.42
49949;BME280;35840;45.982;8.890;2024-02-26T12:19:51;97327.25;;;4.33;99.34
49949;BME280;35840;45.982;8.890;2024-02-26T12:22:20;97345.06;;;4.33;100.00
49949;BME280;35840;45.982;8.890;2024-02-26T12:24:47;97338.69;;;4.42;99.86
49949;BME280;35840;45.982;8.890;2024-02-26T12:27:14;97321.81;;;4.23;100.00
49949;BME280;35840;45.982;8.890;2024-02-26T12:29:42;97333.25;;;4.32;100.00
49949;BME280;35840;45.982;8.890;2024-02-26T12:32:09;97328.31;;;4.29;100.00
49949;BME280;35840;45.982;8.890;2024-02-26T12:34:37;97316.56;;;4.26;100.00
49949;BME280;35840;45.982;8.890;2024-02-26T12:37:04;97327.00;;;4.38;100.00
49949;BME280;35840;45.982;8.890;2024-02-26T12:39:31;97327.78;;;4.40;100.00
49949;BME280;35840;45.982;8.890;2024-02-26T12:41:58;97340.91;;;4.48;100.00
49949;BME280;35840;45.982;8.890;2024-02-26T12:44:26;97345.84;;;4.51;100.00
49949;BME280;35840;45.982;8.890;2024-02-26T12:47:02;97356.19;;;4.48;100.00
49949;BME280;35840;45.982;8.890;2024-02-26T12:49:30;97352.56;;;4.52;100.00
49949;BME280;35840;45.982;8.890;2024-02-26T12:51:57;97357.81;;;4.49;99.48
49949;BME280;35840;45.982;8.890;2024-02-26T12:54:29;97359.03;;;4.42;100.00
49949;BME280;35840;45.982;8.890;2024-02-26T12:57:00;97359.78;;;4.44;100.00
49949;BME280;35840;45.982;8.890;2024-02-26T12:59:29;97369.88;;;4.45;100.00
49949;BME280;35840;45.982;8.890;2024-02-26T13:01:56;97369.28;;;4.40;100.00
49949;BME280;35840;45.982;8.890;2024-02-26T13:04:26;97366.09;;;4.37;99.98
49949;BME280;35840;45.982;8.890;2024-02-26T13:06:55;97367.16;;;4.33;100.00
49949;BME280;35840;45.982;8.890;2024-02-26T13:09:22;97365.88;;;4.24;100.00